createdAt,value
2023-05-25T00:03:33.212Z,81.04
2023-05-25T00:07:45.746Z,80.84
2023-05-25T00:11:59.999Z,81.10
2023-05-25T00:16:12.483Z,81.41
2023-05-25T00:20:25.018Z,81.03
2023-05-25T00:24:38.065Z,81.63
2023-05-25T00:28:50.675Z,81.26
2023-05-25T00:33:03.382Z,80.50
2023-05-25T00:37:16.644Z,81.39
2023-05-25T00:41:29.306Z,81.63
2023-05-25T00:45:41.839Z,82.05
2023-05-25T00:49:54.846Z,81.69
2023-05-25T00:54:07.728Z,79.39
2023-05-25T00:58:22.588Z,80.50
2023-05-25T01:02:36.143Z,81.52
2023-05-25T01:06:49.810Z,80.86
2023-05-25T01:11:05.174Z,79.91
2023-05-25T01:15:18.201Z,78.62
2023-05-25T01:19:33.924Z,79.97
2023-05-25T01:24:08.716Z,80.40
2023-05-25T01:28:30.278Z,80.36
2023-05-25T01:32:43.760Z,79.01
2023-05-25T01:36:56.946Z,79.80
2023-05-25T01:41:09.376Z,79.69
2023-05-25T01:45:22.039Z,78.83
2023-05-25T01:50:03.609Z,78.31
2023-05-25T01:54:20.285Z,78.07
2023-05-25T01:58:44.094Z,78.82
2023-05-25T02:02:56.840Z,79.19
2023-05-25T02:07:11.470Z,79.25
2023-05-25T02:11:23.939Z,78.65
2023-05-25T02:15:36.310Z,77.37
2023-05-25T02:19:53.300Z,77.53
2023-05-25T02:24:06.879Z,77.43
2023-05-25T02:28:19.392Z,77.69
2023-05-25T02:32:33.933Z,78.12
2023-05-25T02:36:47.905Z,78.63
2023-05-25T02:41:00.483Z,79.33
2023-05-25T02:45:13.189Z,77.38
2023-05-25T02:49:26.662Z,77.50
2023-05-25T02:53:39.145Z,76.92
2023-05-25T02:57:52.183Z,77.19
2023-05-25T03:02:21.627Z,77.30
2023-05-25T03:06:36.886Z,78.24
2023-05-25T03:10:56.437Z,77.36
2023-05-25T03:15:09.673Z,76.55
2023-05-25T03:19:22.268Z,78.06
2023-05-25T03:23:34.682Z,77.99
2023-05-25T03:27:54.616Z,78.55
2023-05-25T03:32:07.526Z,76.98
2023-05-25T03:36:22.566Z,77.55
2023-05-25T03:40:34.957Z,76.89
2023-05-25T03:44:47.472Z,76.13
2023-05-25T03:49:00.204Z,76.73
2023-05-25T03:53:12.535Z,74.92
2023-05-25T03:57:24.927Z,74.43
2023-05-25T04:01:39.227Z,74.55
2023-05-25T04:05:51.627Z,72.93
2023-05-25T04:10:04.928Z,73.01
2023-05-25T04:14:17.622Z,72.11
2023-05-25T04:18:30.053Z,71.54
2023-05-25T04:22:44.212Z,70.81
2023-05-25T04:26:57.015Z,69.79
2023-05-25T04:31:09.668Z,62.17
2023-05-25T04:35:51.511Z,61.70
2023-05-25T04:40:09.304Z,60.42
2023-05-25T04:44:21.936Z,56.62
2023-05-25T04:48:38.759Z,50.91
2023-05-25T04:52:51.441Z,50.93
2023-05-25T04:57:04.121Z,53.46
2023-05-25T05:01:17.356Z,52.39
2023-05-25T05:05:30.213Z,52.22
2023-05-25T05:09:44.987Z,53.09
2023-05-25T05:13:57.592Z,52.74
2023-05-25T05:18:10.089Z,51.91
2023-05-25T05:22:22.727Z,51.68
2023-05-25T05:26:48.222Z,51.71
2023-05-25T05:31:12.580Z,53.33
2023-05-25T05:35:26.530Z,52.49
2023-05-25T05:39:46.748Z,53.03
2023-05-25T05:43:59.236Z,53.41
2023-05-25T05:48:11.671Z,52.67
2023-05-25T05:52:24.299Z,50.81
2023-05-25T05:56:36.615Z,50.81
2023-05-25T06:00:50.061Z,51.16
2023-05-25T06:05:03.365Z,49.95
2023-05-25T06:09:16.916Z,50.85
2023-05-25T06:13:30.562Z,49.57
2023-05-25T06:17:44.160Z,48.93
2023-05-25T06:21:58.411Z,50.14
2023-05-25T06:26:11.604Z,48.03
2023-05-25T06:30:24.120Z,48.24
2023-05-25T06:34:38.263Z,48.74
2023-05-25T06:38:51.250Z,45.33
2023-05-25T06:43:03.946Z,45.23
2023-05-25T06:47:56.022Z,46.15
2023-05-25T06:52:08.760Z,47.25
2023-05-25T06:56:21.829Z,46.10
2023-05-25T07:00:36.058Z,45.20
2023-05-25T07:04:48.578Z,46.31
2023-05-25T07:09:01.105Z,44.97
2023-05-25T07:13:14.939Z,45.84
2023-05-25T07:17:31.931Z,46.97
2023-05-25T07:21:46.792Z,46.72
2023-05-25T07:25:59.378Z,48.33
2023-05-25T07:30:12.371Z,47.83
2023-05-25T07:34:26.505Z,46.31
2023-05-25T07:38:41.460Z,46.33
2023-05-25T07:42:54.357Z,47.05
2023-05-25T07:47:07.378Z,46.93
2023-05-25T07:51:19.787Z,47.46
2023-05-25T07:55:33.545Z,45.93
2023-05-25T07:59:47.889Z,45.18
2023-05-25T08:04:00.603Z,44.26
2023-05-25T08:08:18.443Z,44.20
2023-05-25T08:12:46.976Z,44.39
2023-05-25T08:17:03.070Z,43.31
2023-05-25T08:21:16.255Z,42.87
2023-05-25T08:25:28.653Z,42.81
2023-05-25T08:29:41.464Z,43.27
2023-05-25T08:33:53.876Z,41.40
2023-05-25T08:38:06.334Z,40.62
2023-05-25T08:42:18.868Z,40.32
2023-05-25T08:46:31.881Z,42.09
2023-05-25T08:50:45.193Z,39.70
2023-05-25T08:55:01.677Z,38.16
2023-05-25T08:59:39.041Z,37.47
2023-05-25T09:03:52.215Z,37.16
2023-05-25T09:08:09.126Z,39.73
2023-05-25T09:12:23.156Z,39.02
2023-05-25T09:16:38.102Z,36.94
2023-05-25T09:20:50.726Z,37.65
2023-05-25T09:25:08.740Z,38.76
2023-05-25T09:29:22.127Z,39.19
2023-05-25T09:33:36.252Z,40.44
2023-05-25T09:37:49.737Z,40.02
2023-05-25T09:42:05.336Z,37.86
2023-05-25T09:46:18.526Z,34.63
2023-05-25T09:50:32.957Z,35.95
2023-05-25T09:54:46.906Z,35.73
2023-05-25T09:59:00.206Z,37.48
2023-05-25T10:03:15.621Z,38.44
2023-05-25T10:07:29.506Z,38.02
2023-05-25T10:11:44.402Z,41.17
2023-05-25T10:15:58.871Z,41.48
2023-05-25T10:20:12.300Z,42.08
2023-05-25T10:24:38.751Z,42.28
2023-05-25T10:28:53.091Z,42.27
2023-05-25T10:33:06.350Z,40.12
2023-05-25T10:37:19.232Z,40.91
2023-05-25T10:41:33.030Z,41.50
2023-05-25T10:45:45.698Z,42.01
2023-05-25T10:50:01.962Z,41.92
2023-05-25T10:54:15.401Z,40.68
2023-05-25T10:58:29.277Z,42.45
2023-05-25T11:02:55.818Z,44.41
2023-05-25T11:07:14.556Z,45.84
2023-05-25T11:11:47.982Z,44.10
2023-05-25T11:16:15.661Z,45.25
2023-05-25T11:20:30.406Z,44.70
2023-05-25T11:24:46.724Z,45.75
2023-05-25T11:29:00.721Z,44.06
2023-05-25T11:33:13.643Z,43.19
2023-05-25T11:37:32.055Z,43.64
2023-05-25T11:41:50.530Z,43.97
2023-05-25T11:46:03.252Z,44.85
2023-05-25T11:50:17.509Z,44.50
2023-05-25T11:54:31.745Z,43.41
2023-05-25T11:58:50.944Z,42.34
2023-05-25T12:03:03.554Z,42.51
2023-05-25T12:07:16.123Z,43.26
2023-05-25T12:11:32.747Z,44.56
2023-05-25T12:15:48.931Z,46.71
2023-05-25T12:20:03.613Z,47.40
2023-05-25T12:24:18.362Z,53.26
2023-05-25T12:28:30.787Z,54.28
2023-05-25T12:33:05.423Z,53.50
2023-05-25T12:37:22.631Z,52.59
2023-05-25T12:41:56.096Z,57.98
2023-05-25T12:46:09.753Z,66.25
2023-05-25T12:50:23.341Z,65.58
2023-05-25T12:54:46.839Z,66.29
2023-05-25T12:59:23.848Z,64.70
2023-05-25T13:03:40.548Z,63.06
2023-05-25T13:07:54.483Z,62.23
2023-05-25T13:12:07.519Z,60.68
2023-05-25T13:16:20.044Z,54.94
2023-05-25T13:20:32.991Z,50.69
2023-05-25T13:24:45.472Z,50.56
2023-05-25T13:28:59.239Z,47.42
2023-05-25T13:33:11.814Z,52.02
2023-05-25T13:37:26.515Z,61.17
2023-05-25T13:41:38.904Z,64.46
2023-05-25T13:45:51.545Z,65.57
2023-05-25T13:50:04.930Z,66.35
2023-05-25T13:54:19.015Z,66.45
2023-05-25T13:58:31.476Z,67.18
2023-05-25T14:02:44.013Z,68.86
2023-05-25T14:06:57.349Z,70.00
2023-05-25T14:11:09.922Z,68.14
2023-05-25T14:15:22.524Z,66.38
2023-05-25T14:19:35.521Z,65.40
2023-05-25T14:23:47.905Z,63.79
2023-05-25T14:28:00.283Z,62.99
2023-05-25T14:32:12.663Z,60.02
2023-05-25T14:36:25.069Z,59.55
2023-05-25T14:40:37.394Z,65.23
2023-05-25T14:44:49.724Z,69.35
2023-05-25T14:49:02.234Z,69.13
2023-05-25T14:53:17.730Z,73.03
2023-05-25T14:57:30.252Z,74.28
2023-05-25T15:01:42.689Z,74.63
2023-05-25T15:05:55.081Z,71.47
2023-05-25T15:10:11.162Z,67.99
2023-05-25T15:14:23.600Z,69.53
2023-05-25T15:18:36.048Z,69.43
2023-05-25T15:22:48.484Z,73.22
2023-05-25T15:27:01.810Z,73.34
2023-05-25T15:31:14.284Z,71.42
2023-05-25T15:35:31.376Z,73.69
2023-05-25T15:39:44.033Z,75.17
2023-05-25T15:44:01.476Z,77.06
2023-05-25T15:48:13.959Z,78.38
2023-05-25T15:52:26.384Z,79.11
2023-05-25T15:56:41.865Z,78.12
2023-05-25T16:00:57.492Z,82.04
2023-05-25T16:05:13.061Z,83.10
2023-05-25T16:09:25.597Z,83.66
2023-05-25T16:13:38.167Z,82.55
2023-05-25T16:17:50.703Z,81.34
2023-05-25T16:22:03.085Z,81.59
2023-05-25T16:26:16.630Z,78.40
2023-05-25T16:30:29.059Z,78.86
2023-05-25T16:34:41.398Z,79.49
2023-05-25T16:38:56.628Z,80.38
2023-05-25T16:43:10.799Z,80.37
2023-05-25T16:47:23.210Z,76.33
2023-05-25T16:51:35.606Z,72.63
2023-05-25T16:55:48.072Z,71.17
2023-05-25T17:00:00.628Z,72.18
2023-05-25T17:04:12.989Z,71.24
2023-05-25T17:08:25.462Z,69.20
2023-05-25T17:12:37.845Z,69.54
2023-05-25T17:16:50.370Z,67.46
2023-05-25T17:21:02.895Z,65.89
2023-05-25T17:25:15.388Z,65.36
2023-05-25T17:29:32.187Z,65.66
2023-05-25T17:33:44.554Z,68.41
2023-05-25T17:37:57.434Z,66.66
2023-05-25T17:42:10.102Z,65.21
2023-05-25T17:46:25.044Z,64.59
2023-05-25T17:50:38.390Z,65.35
2023-05-25T17:54:50.872Z,63.14
2023-05-25T17:59:03.852Z,64.82
2023-05-25T18:03:16.447Z,65.08
2023-05-25T18:07:28.951Z,65.70
2023-05-25T18:11:41.441Z,66.67
2023-05-25T18:15:54.320Z,65.52
2023-05-25T18:20:10.402Z,67.09
2023-05-25T18:24:23.356Z,67.39
2023-05-25T18:28:38.123Z,71.08
2023-05-25T18:32:50.862Z,72.16
2023-05-25T18:37:06.054Z,71.99
2023-05-25T18:41:21.208Z,71.94
2023-05-25T18:45:35.722Z,73.14
2023-05-25T18:49:48.162Z,73.47
2023-05-25T18:54:10.713Z,72.21
2023-05-25T18:58:28.437Z,72.78
2023-05-25T19:02:41.327Z,73.75
2023-05-25T19:06:59.328Z,74.22
2023-05-25T19:11:11.799Z,75.33
2023-05-25T19:15:27.312Z,76.93
2023-05-25T19:19:39.776Z,78.25
2023-05-25T19:23:52.676Z,78.55
2023-05-25T19:28:05.299Z,78.80
2023-05-25T19:32:26.818Z,79.11
2023-05-25T19:36:44.775Z,79.41
2023-05-25T19:40:57.269Z,80.18
2023-05-25T19:45:10.360Z,80.98
2023-05-25T19:49:22.791Z,81.85
2023-05-25T19:53:35.352Z,82.51
2023-05-25T19:57:47.872Z,80.75
2023-05-25T20:02:00.439Z,80.49
2023-05-25T20:06:15.919Z,80.85
2023-05-25T20:10:28.503Z,80.75
2023-05-25T20:14:41.027Z,80.99
2023-05-25T20:18:53.600Z,81.16
2023-05-25T20:23:06.487Z,80.37
2023-05-25T20:27:19.078Z,81.43
2023-05-25T20:31:32.769Z,81.76
2023-05-25T20:35:46.747Z,80.50
2023-05-25T20:40:03.815Z,80.82
2023-05-25T20:44:16.525Z,81.11
2023-05-25T20:48:28.887Z,81.99
2023-05-25T20:52:41.944Z,79.19
2023-05-25T20:56:54.455Z,78.45
2023-05-25T21:01:06.992Z,78.00
2023-05-25T21:05:19.554Z,79.19
2023-05-25T21:09:32.001Z,78.99
2023-05-25T21:13:44.539Z,79.49
2023-05-25T21:17:56.992Z,80.91
2023-05-25T21:22:11.530Z,81.38
2023-05-25T21:26:23.952Z,76.68
2023-05-25T21:30:36.528Z,77.06
2023-05-25T21:34:49.514Z,78.75
2023-05-25T21:39:01.932Z,77.18
2023-05-25T21:43:14.329Z,76.35
2023-05-25T21:47:26.807Z,78.02
2023-05-25T21:51:39.458Z,78.72
2023-05-25T21:55:53.171Z,78.06
2023-05-25T22:00:06.886Z,76.64
2023-05-25T22:04:29.426Z,76.01
2023-05-25T22:08:41.953Z,77.71
2023-05-25T22:12:54.377Z,77.94
2023-05-25T22:17:07.480Z,77.98
2023-05-25T22:21:20.112Z,77.88
2023-05-25T22:25:32.450Z,77.99
2023-05-25T22:29:45.081Z,77.00
2023-05-25T22:33:58.252Z,75.93
2023-05-25T22:38:11.581Z,75.67
2023-05-25T22:42:24.004Z,77.18
2023-05-25T22:46:36.541Z,78.05
2023-05-25T22:50:49.231Z,75.57
2023-05-25T22:55:01.964Z,76.21
2023-05-25T22:59:14.487Z,76.55
2023-05-25T23:03:27.167Z,77.97
2023-05-25T23:07:39.605Z,77.32
2023-05-25T23:11:57.198Z,78.38
2023-05-25T23:16:12.398Z,77.95
2023-05-25T23:20:25.177Z,78.14
2023-05-25T23:24:38.120Z,76.37
2023-05-25T23:28:50.663Z,78.26
2023-05-25T23:33:03.102Z,79.02
2023-05-25T23:43:38.084Z,80.34
2023-05-25T23:47:50.821Z,80.64
2023-05-25T23:52:03.372Z,81.59
2023-05-25T23:56:15.810Z,79.34
